sensor_id;sensor_type;location;lat;lon;timestamp;P1;durP1;ratioP1;P2;durP2;ratioP2
37131;SDS011;23035;50.032;21.978;2023-03-19T00:01:02;14.00;;;5.95;;
37131;SDS011;23035;50.032;21.978;2023-03-19T00:06:17;12.43;;;5.38;;
37131;SDS011;23035;50.032;21.978;2023-03-19T00:11:21;11.88;;;6.03;;
37131;SDS011;23035;50.032;21.978;2023-03-19T00:16:27;12.27;;;5.60;;
37131;SDS011;23035;50.032;21.978;2023-03-19T00:21:31;10.95;;;5.15;;
37131;SDS011;23035;50.032;21.978;2023-03-19T00:26:35;10.73;;;5.50;;
37131;SDS011;23035;50.032;21.978;2023-03-19T00:31:41;12.80;;;6.28;;
37131;SDS011;23035;50.032;21.978;2023-03-19T00:36:45;9.20;;;5.28;;
37131;SDS011;23035;50.032;21.978;2023-03-19T00:41:50;11.27;;;6.28;;
37131;SDS011;23035;50.032;21.978;2023-03-19T00:46:56;12.40;;;4.82;;
37131;SDS011;23035;50.032;21.978;2023-03-19T00:52:00;10.30;;;4.70;;
37131;SDS011;23035;50.032;21.978;2023-03-19T00:57:07;9.35;;;4.40;;
37131;SDS011;23035;50.032;21.978;2023-03-19T01:02:12;9.82;;;5.07;;
37131;SDS011;23035;50.032;21.978;2023-03-19T01:07:17;8.65;;;4.47;;
37131;SDS011;23035;50.032;21.978;2023-03-19T01:12:21;10.23;;;4.75;;
37131;SDS011;23035;50.032;21.978;2023-03-19T01:17:26;8.80;;;4.95;;
37131;SDS011;23035;50.032;21.978;2023-03-19T01:22:30;9.15;;;4.38;;
37131;SDS011;23035;50.032;21.978;2023-03-19T01:27:37;10.82;;;4.55;;
37131;SDS011;23035;50.032;21.978;2023-03-19T01:32:43;9.07;;;4.63;;
37131;SDS011;23035;50.032;21.978;2023-03-19T01:37:59;8.25;;;4.85;;
37131;SDS011;23035;50.032;21.978;2023-03-19T01:43:12;8.60;;;4.30;;
37131;SDS011;23035;50.032;21.978;2023-03-19T01:53:52;9.38;;;4.63;;
37131;SDS011;23035;50.032;21.978;2023-03-19T01:59:30;11.07;;;5.10;;
37131;SDS011;23035;50.032;21.978;2023-03-19T02:04:51;9.93;;;4.85;;
37131;SDS011;23035;50.032;21.978;2023-03-19T02:10:00;12.32;;;5.30;;
37131;SDS011;23035;50.032;21.978;2023-03-19T02:15:06;12.68;;;4.82;;
37131;SDS011;23035;50.032;21.978;2023-03-19T02:20:14;10.70;;;6.05;;
37131;SDS011;23035;50.032;21.978;2023-03-19T02:25:24;18.25;;;6.75;;
37131;SDS011;23035;50.032;21.978;2023-03-19T02:30:35;13.23;;;7.32;;
37131;SDS011;23035;50.032;21.978;2023-03-19T02:35:44;18.27;;;8.32;;
37131;SDS011;23035;50.032;21.978;2023-03-19T02:40:52;12.00;;;6.03;;
37131;SDS011;23035;50.032;21.978;2023-03-19T02:46:03;11.85;;;6.35;;
37131;SDS011;23035;50.032;21.978;2023-03-19T02:51:09;15.73;;;6.32;;
37131;SDS011;23035;50.032;21.978;2023-03-19T02:56:14;11.80;;;6.30;;
37131;SDS011;23035;50.032;21.978;2023-03-19T03:01:20;9.60;;;5.25;;
37131;SDS011;23035;50.032;21.978;2023-03-19T03:06:24;7.88;;;4.35;;
37131;SDS011;23035;50.032;21.978;2023-03-19T03:11:28;12.07;;;6.88;;
37131;SDS011;23035;50.032;21.978;2023-03-19T03:16:34;9.80;;;5.30;;
37131;SDS011;23035;50.032;21.978;2023-03-19T03:21:39;21.85;;;10.25;;
37131;SDS011;23035;50.032;21.978;2023-03-19T03:26:43;10.95;;;5.00;;
37131;SDS011;23035;50.032;21.978;2023-03-19T03:31:51;8.63;;;4.32;;
37131;SDS011;23035;50.032;21.978;2023-03-19T03:36:55;9.35;;;5.07;;
37131;SDS011;23035;50.032;21.978;2023-03-19T03:41:59;7.18;;;4.47;;
37131;SDS011;23035;50.032;21.978;2023-03-19T03:47:07;12.40;;;4.90;;
37131;SDS011;23035;50.032;21.978;2023-03-19T03:57:15;10.27;;;4.70;;
37131;SDS011;23035;50.032;21.978;2023-03-19T04:02:21;8.77;;;4.82;;
37131;SDS011;23035;50.032;21.978;2023-03-19T04:07:27;8.07;;;4.47;;
37131;SDS011;23035;50.032;21.978;2023-03-19T04:12:32;7.38;;;4.53;;
37131;SDS011;23035;50.032;21.978;2023-03-19T04:17:38;9.63;;;4.20;;
37131;SDS011;23035;50.032;21.978;2023-03-19T04:22:44;7.32;;;4.60;;
37131;SDS011;23035;50.032;21.978;2023-03-19T04:27:48;7.85;;;4.72;;
37131;SDS011;23035;50.032;21.978;2023-03-19T04:32:53;8.20;;;4.60;;
37131;SDS011;23035;50.032;21.978;2023-03-19T04:37:58;15.20;;;4.88;;
37131;SDS011;23035;50.032;21.978;2023-03-19T04:43:02;7.50;;;4.22;;
37131;SDS011;23035;50.032;21.978;2023-03-19T04:48:10;7.75;;;4.85;;
37131;SDS011;23035;50.032;21.978;2023-03-19T04:53:15;11.30;;;5.50;;
37131;SDS011;23035;50.032;21.978;2023-03-19T04:58:19;11.10;;;5.05;;
37131;SDS011;23035;50.032;21.978;2023-03-19T05:03:33;8.60;;;4.25;;
37131;SDS011;23035;50.032;21.978;2023-03-19T05:08:37;10.98;;;5.00;;
37131;SDS011;23035;50.032;21.978;2023-03-19T05:13:42;11.15;;;5.60;;
37131;SDS011;23035;50.032;21.978;2023-03-19T05:18:49;8.80;;;5.28;;
37131;SDS011;23035;50.032;21.978;2023-03-19T05:28:59;10.10;;;5.15;;
37131;SDS011;23035;50.032;21.978;2023-03-19T05:34:14;11.25;;;4.32;;
37131;SDS011;23035;50.032;21.978;2023-03-19T05:39:18;10.70;;;4.63;;
37131;SDS011;23035;50.032;21.978;2023-03-19T05:44:23;9.20;;;3.90;;
37131;SDS011;23035;50.032;21.978;2023-03-19T05:49:34;11.07;;;5.15;;
37131;SDS011;23035;50.032;21.978;2023-03-19T05:54:38;9.43;;;4.05;;
37131;SDS011;23035;50.032;21.978;2023-03-19T06:00:08;13.07;;;5.00;;
37131;SDS011;23035;50.032;21.978;2023-03-19T06:05:14;8.18;;;4.45;;
37131;SDS011;23035;50.032;21.978;2023-03-19T06:10:19;7.95;;;4.50;;
37131;SDS011;23035;50.032;21.978;2023-03-19T06:15:28;14.90;;;4.88;;
37131;SDS011;23035;50.032;21.978;2023-03-19T06:20:57;7.38;;;4.50;;
37131;SDS011;23035;50.032;21.978;2023-03-19T06:26:02;12.13;;;5.00;;
37131;SDS011;23035;50.032;21.978;2023-03-19T06:31:15;9.95;;;4.53;;
37131;SDS011;23035;50.032;21.978;2023-03-19T06:36:29;7.03;;;4.60;;
37131;SDS011;23035;50.032;21.978;2023-03-19T06:41:36;9.73;;;4.80;;
37131;SDS011;23035;50.032;21.978;2023-03-19T06:46:47;9.18;;;4.68;;
37131;SDS011;23035;50.032;21.978;2023-03-19T06:51:53;5.60;;;3.67;;
37131;SDS011;23035;50.032;21.978;2023-03-19T06:56:57;8.77;;;4.75;;
37131;SDS011;23035;50.032;21.978;2023-03-19T07:02:02;6.32;;;4.07;;
37131;SDS011;23035;50.032;21.978;2023-03-19T07:07:08;6.20;;;4.00;;
37131;SDS011;23035;50.032;21.978;2023-03-19T07:12:12;9.15;;;4.13;;
37131;SDS011;23035;50.032;21.978;2023-03-19T07:17:16;8.30;;;4.40;;
37131;SDS011;23035;50.032;21.978;2023-03-19T07:22:22;8.55;;;4.00;;
37131;SDS011;23035;50.032;21.978;2023-03-19T07:27:26;8.10;;;4.53;;
37131;SDS011;23035;50.032;21.978;2023-03-19T07:32:33;6.80;;;4.32;;
37131;SDS011;23035;50.032;21.978;2023-03-19T07:37:38;14.88;;;4.75;;
37131;SDS011;23035;50.032;21.978;2023-03-19T07:42:43;8.50;;;4.50;;
37131;SDS011;23035;50.032;21.978;2023-03-19T07:47:48;8.90;;;4.63;;
37131;SDS011;23035;50.032;21.978;2023-03-19T07:52:54;7.55;;;5.07;;
37131;SDS011;23035;50.032;21.978;2023-03-19T07:57:58;6.47;;;3.88;;
37131;SDS011;23035;50.032;21.978;2023-03-19T08:03:02;8.10;;;4.22;;
37131;SDS011;23035;50.032;21.978;2023-03-19T08:08:08;7.10;;;3.95;;
37131;SDS011;23035;50.032;21.978;2023-03-19T08:13:12;6.22;;;4.20;;
37131;SDS011;23035;50.032;21.978;2023-03-19T08:18:17;7.07;;;4.30;;
37131;SDS011;23035;50.032;21.978;2023-03-19T08:23:22;6.63;;;4.50;;
37131;SDS011;23035;50.032;21.978;2023-03-19T08:28:28;5.82;;;4.03;;
37131;SDS011;23035;50.032;21.978;2023-03-19T08:33:32;8.88;;;4.47;;
37131;SDS011;23035;50.032;21.978;2023-03-19T08:38:38;6.25;;;4.15;;
37131;SDS011;23035;50.032;21.978;2023-03-19T08:43:43;8.45;;;4.60;;
37131;SDS011;23035;50.032;21.978;2023-03-19T08:48:47;6.38;;;4.50;;
37131;SDS011;23035;50.032;21.978;2023-03-19T08:53:52;7.03;;;4.38;;
37131;SDS011;23035;50.032;21.978;2023-03-19T08:58:57;8.38;;;4.57;;
37131;SDS011;23035;50.032;21.978;2023-03-19T09:04:01;7.90;;;4.10;;
37131;SDS011;23035;50.032;21.978;2023-03-19T09:09:07;6.53;;;4.38;;
37131;SDS011;23035;50.032;21.978;2023-03-19T09:14:11;5.25;;;4.28;;
37131;SDS011;23035;50.032;21.978;2023-03-19T09:24:23;4.47;;;3.97;;
37131;SDS011;23035;50.032;21.978;2023-03-19T09:29:27;6.20;;;4.53;;
37131;SDS011;23035;50.032;21.978;2023-03-19T09:34:31;6.47;;;4.28;;
37131;SDS011;23035;50.032;21.978;2023-03-19T09:39:37;7.60;;;4.10;;
37131;SDS011;23035;50.032;21.978;2023-03-19T09:49:47;11.27;;;4.40;;
37131;SDS011;23035;50.032;21.978;2023-03-19T09:54:55;9.35;;;3.95;;
37131;SDS011;23035;50.032;21.978;2023-03-19T10:00:04;7.85;;;4.00;;
37131;SDS011;23035;50.032;21.978;2023-03-19T10:05:22;7.88;;;4.95;;
37131;SDS011;23035;50.032;21.978;2023-03-19T10:10:41;7.15;;;4.20;;
37131;SDS011;23035;50.032;21.978;2023-03-19T10:15:51;6.25;;;3.70;;
37131;SDS011;23035;50.032;21.978;2023-03-19T10:21:02;6.47;;;4.05;;
37131;SDS011;23035;50.032;21.978;2023-03-19T10:26:13;6.43;;;3.63;;
37131;SDS011;23035;50.032;21.978;2023-03-19T10:31:25;6.40;;;3.65;;
37131;SDS011;23035;50.032;21.978;2023-03-19T10:36:32;7.05;;;3.75;;
37131;SDS011;23035;50.032;21.978;2023-03-19T10:41:48;9.80;;;3.85;;
37131;SDS011;23035;50.032;21.978;2023-03-19T10:47:09;4.90;;;3.50;;
37131;SDS011;23035;50.032;21.978;2023-03-19T10:52:16;6.15;;;3.78;;
37131;SDS011;23035;50.032;21.978;2023-03-19T10:57:25;6.32;;;4.18;;
37131;SDS011;23035;50.032;21.978;2023-03-19T11:02:31;6.72;;;3.40;;
37131;SDS011;23035;50.032;21.978;2023-03-19T11:07:35;6.60;;;3.70;;
37131;SDS011;23035;50.032;21.978;2023-03-19T11:12:41;4.53;;;3.45;;
37131;SDS011;23035;50.032;21.978;2023-03-19T11:17:55;7.43;;;3.85;;
37131;SDS011;23035;50.032;21.978;2023-03-19T11:23:00;4.70;;;3.45;;
37131;SDS011;23035;50.032;21.978;2023-03-19T11:28:12;8.45;;;4.13;;
37131;SDS011;23035;50.032;21.978;2023-03-19T11:38:53;5.75;;;3.40;;
37131;SDS011;23035;50.032;21.978;2023-03-19T11:44:14;5.00;;;3.50;;
37131;SDS011;23035;50.032;21.978;2023-03-19T11:49:37;6.50;;;3.88;;
37131;SDS011;23035;50.032;21.978;2023-03-19T11:54:52;5.18;;;3.67;;
37131;SDS011;23035;50.032;21.978;2023-03-19T12:00:12;7.60;;;3.80;;
37131;SDS011;23035;50.032;21.978;2023-03-19T12:05:30;5.18;;;3.88;;
37131;SDS011;23035;50.032;21.978;2023-03-19T12:10:44;5.75;;;3.80;;
37131;SDS011;23035;50.032;21.978;2023-03-19T12:16:03;7.95;;;3.53;;
37131;SDS011;23035;50.032;21.978;2023-03-19T12:21:16;6.90;;;3.85;;
37131;SDS011;23035;50.032;21.978;2023-03-19T12:26:27;5.97;;;3.72;;
37131;SDS011;23035;50.032;21.978;2023-03-19T12:31:47;5.97;;;3.55;;
37131;SDS011;23035;50.032;21.978;2023-03-19T12:37:06;7.07;;;3.58;;
37131;SDS011;23035;50.032;21.978;2023-03-19T12:42:16;6.40;;;3.40;;
37131;SDS011;23035;50.032;21.978;2023-03-19T12:47:24;7.78;;;3.83;;
37131;SDS011;23035;50.032;21.978;2023-03-19T12:52:33;8.40;;;4.13;;
37131;SDS011;23035;50.032;21.978;2023-03-19T12:57:41;8.02;;;3.60;;
37131;SDS011;23035;50.032;21.978;2023-03-19T13:02:52;4.43;;;3.38;;
37131;SDS011;23035;50.032;21.978;2023-03-19T13:08:09;4.65;;;3.70;;
37131;SDS011;23035;50.032;21.978;2023-03-19T13:13:24;5.72;;;3.50;;
37131;SDS011;23035;50.032;21.978;2023-03-19T13:18:37;4.93;;;3.47;;
37131;SDS011;23035;50.032;21.978;2023-03-19T13:23:50;5.85;;;4.07;;
37131;SDS011;23035;50.032;21.978;2023-03-19T13:29:08;4.93;;;3.65;;
37131;SDS011;23035;50.032;21.978;2023-03-19T13:34:23;6.15;;;3.60;;
37131;SDS011;23035;50.032;21.978;2023-03-19T13:39:30;5.63;;;3.83;;
37131;SDS011;23035;50.032;21.978;2023-03-19T13:44:39;4.97;;;3.47;;
37131;SDS011;23035;50.032;21.978;2023-03-19T14:00:54;7.40;;;4.40;;
37131;SDS011;23035;50.032;21.978;2023-03-19T14:06:00;6.10;;;4.30;;
37131;SDS011;23035;50.032;21.978;2023-03-19T14:11:07;5.78;;;4.28;;
37131;SDS011;23035;50.032;21.978;2023-03-19T14:16:14;9.65;;;4.25;;
37131;SDS011;23035;50.032;21.978;2023-03-19T14:21:32;6.38;;;3.97;;
37131;SDS011;23035;50.032;21.978;2023-03-19T14:26:49;8.02;;;4.18;;
37131;SDS011;23035;50.032;21.978;2023-03-19T14:31:55;9.18;;;4.57;;
37131;SDS011;23035;50.032;21.978;2023-03-19T14:37:07;6.68;;;3.95;;
37131;SDS011;23035;50.032;21.978;2023-03-19T14:42:22;7.10;;;4.05;;
37131;SDS011;23035;50.032;21.978;2023-03-19T14:53:27;9.65;;;4.97;;
37131;SDS011;23035;50.032;21.978;2023-03-19T14:58:53;7.35;;;4.55;;
37131;SDS011;23035;50.032;21.978;2023-03-19T15:04:03;6.18;;;4.53;;
37131;SDS011;23035;50.032;21.978;2023-03-19T15:09:13;7.45;;;4.57;;
37131;SDS011;23035;50.032;21.978;2023-03-19T15:14:30;7.80;;;4.07;;
37131;SDS011;23035;50.032;21.978;2023-03-19T15:19:50;7.38;;;4.18;;
37131;SDS011;23035;50.032;21.978;2023-03-19T15:25:04;6.95;;;4.40;;
37131;SDS011;23035;50.032;21.978;2023-03-19T15:30:20;8.77;;;5.00;;
37131;SDS011;23035;50.032;21.978;2023-03-19T15:35:31;9.82;;;4.38;;
37131;SDS011;23035;50.032;21.978;2023-03-19T15:40:37;9.23;;;4.57;;
37131;SDS011;23035;50.032;21.978;2023-03-19T15:45:47;10.45;;;4.80;;
37131;SDS011;23035;50.032;21.978;2023-03-19T15:50:57;9.70;;;5.13;;
37131;SDS011;23035;50.032;21.978;2023-03-19T15:56:03;9.00;;;4.68;;
37131;SDS011;23035;50.032;21.978;2023-03-19T16:01:10;6.78;;;4.90;;
37131;SDS011;23035;50.032;21.978;2023-03-19T16:06:16;8.38;;;4.80;;
37131;SDS011;23035;50.032;21.978;2023-03-19T16:11:28;8.05;;;4.55;;
37131;SDS011;23035;50.032;21.978;2023-03-19T16:16:38;7.38;;;4.75;;
37131;SDS011;23035;50.032;21.978;2023-03-19T16:21:45;8.63;;;4.78;;
37131;SDS011;23035;50.032;21.978;2023-03-19T16:26:50;11.40;;;5.05;;
37131;SDS011;23035;50.032;21.978;2023-03-19T16:31:57;10.40;;;5.25;;
37131;SDS011;23035;50.032;21.978;2023-03-19T16:42:35;15.48;;;7.88;;
37131;SDS011;23035;50.032;21.978;2023-03-19T16:47:43;12.45;;;8.77;;
37131;SDS011;23035;50.032;21.978;2023-03-19T16:52:48;17.27;;;7.95;;
37131;SDS011;23035;50.032;21.978;2023-03-19T16:57:54;12.82;;;7.63;;
37131;SDS011;23035;50.032;21.978;2023-03-19T17:03:02;17.67;;;8.57;;
37131;SDS011;23035;50.032;21.978;2023-03-19T17:08:06;12.60;;;7.85;;
37131;SDS011;23035;50.032;21.978;2023-03-19T17:13:12;15.40;;;8.07;;
37131;SDS011;23035;50.032;21.978;2023-03-19T17:18:22;18.33;;;11.63;;
37131;SDS011;23035;50.032;21.978;2023-03-19T17:23:32;23.15;;;12.52;;
37131;SDS011;23035;50.032;21.978;2023-03-19T17:28:37;30.23;;;13.50;;
37131;SDS011;23035;50.032;21.978;2023-03-19T17:33:42;29.67;;;15.52;;
37131;SDS011;23035;50.032;21.978;2023-03-19T17:38:47;31.40;;;16.42;;
37131;SDS011;23035;50.032;21.978;2023-03-19T17:43:51;42.33;;;20.92;;
37131;SDS011;23035;50.032;21.978;2023-03-19T17:48:56;79.18;;;41.55;;
37131;SDS011;23035;50.032;21.978;2023-03-19T17:54:00;43.72;;;22.45;;
37131;SDS011;23035;50.032;21.978;2023-03-19T17:59:04;39.80;;;22.65;;
37131;SDS011;23035;50.032;21.978;2023-03-19T18:04:10;54.42;;;24.15;;
37131;SDS011;23035;50.032;21.978;2023-03-19T18:09:17;54.40;;;25.55;;
37131;SDS011;23035;50.032;21.978;2023-03-19T18:14:23;45.35;;;21.85;;
37131;SDS011;23035;50.032;21.978;2023-03-19T18:19:29;59.00;;;28.00;;
37131;SDS011;23035;50.032;21.978;2023-03-19T18:24:35;61.22;;;27.98;;
37131;SDS011;23035;50.032;21.978;2023-03-19T18:29:39;45.95;;;20.20;;
37131;SDS011;23035;50.032;21.978;2023-03-19T18:34:44;29.83;;;14.95;;
37131;SDS011;23035;50.032;21.978;2023-03-19T18:39:48;43.58;;;22.85;;
37131;SDS011;23035;50.032;21.978;2023-03-19T18:44:53;47.20;;;23.35;;
37131;SDS011;23035;50.032;21.978;2023-03-19T18:49:58;64.13;;;30.23;;
37131;SDS011;23035;50.032;21.978;2023-03-19T18:55:03;49.60;;;22.48;;
37131;SDS011;23035;50.032;21.978;2023-03-19T19:00:16;44.13;;;22.77;;
37131;SDS011;23035;50.032;21.978;2023-03-19T19:05:24;93.20;;;51.13;;
37131;SDS011;23035;50.032;21.978;2023-03-19T19:10:31;71.85;;;36.40;;
37131;SDS011;23035;50.032;21.978;2023-03-19T19:20:42;64.75;;;30.63;;
37131;SDS011;23035;50.032;21.978;2023-03-19T19:25:48;105.82;;;52.65;;
37131;SDS011;23035;50.032;21.978;2023-03-19T19:30:53;61.28;;;30.27;;
37131;SDS011;23035;50.032;21.978;2023-03-19T19:36:00;54.15;;;27.42;;
37131;SDS011;23035;50.032;21.978;2023-03-19T19:41:05;59.17;;;27.48;;
37131;SDS011;23035;50.032;21.978;2023-03-19T19:46:13;41.53;;;22.27;;
37131;SDS011;23035;50.032;21.978;2023-03-19T19:51:21;33.78;;;18.30;;
37131;SDS011;23035;50.032;21.978;2023-03-19T19:56:27;55.60;;;23.85;;
37131;SDS011;23035;50.032;21.978;2023-03-19T20:01:31;102.72;;;33.58;;
37131;SDS011;23035;50.032;21.978;2023-03-19T20:06:39;79.57;;;27.15;;
37131;SDS011;23035;50.032;21.978;2023-03-19T20:11:43;48.65;;;21.80;;
37131;SDS011;23035;50.032;21.978;2023-03-19T20:16:49;33.67;;;16.40;;
37131;SDS011;23035;50.032;21.978;2023-03-19T20:21:54;34.55;;;17.60;;
37131;SDS011;23035;50.032;21.978;2023-03-19T20:26:58;39.78;;;16.65;;
37131;SDS011;23035;50.032;21.978;2023-03-19T20:32:06;35.72;;;17.27;;
37131;SDS011;23035;50.032;21.978;2023-03-19T20:37:27;34.47;;;17.67;;
37131;SDS011;23035;50.032;21.978;2023-03-19T20:42:31;48.20;;;22.35;;
37131;SDS011;23035;50.032;21.978;2023-03-19T20:47:36;45.67;;;22.55;;
37131;SDS011;23035;50.032;21.978;2023-03-19T20:52:42;43.95;;;24.13;;
37131;SDS011;23035;50.032;21.978;2023-03-19T20:57:46;51.08;;;24.20;;
37131;SDS011;23035;50.032;21.978;2023-03-19T21:02:53;40.63;;;21.90;;
37131;SDS011;23035;50.032;21.978;2023-03-19T21:07:59;43.72;;;23.42;;
37131;SDS011;23035;50.032;21.978;2023-03-19T21:13:04;49.10;;;24.60;;
37131;SDS011;23035;50.032;21.978;2023-03-19T21:18:09;58.22;;;27.73;;
37131;SDS011;23035;50.032;21.978;2023-03-19T21:23:15;56.92;;;27.05;;
37131;SDS011;23035;50.032;21.978;2023-03-19T21:28:25;47.15;;;22.63;;
37131;SDS011;23035;50.032;21.978;2023-03-19T21:33:33;56.42;;;24.23;;
37131;SDS011;23035;50.032;21.978;2023-03-19T21:38:39;39.83;;;21.00;;
37131;SDS011;23035;50.032;21.978;2023-03-19T21:43:45;50.58;;;25.50;;
37131;SDS011;23035;50.032;21.978;2023-03-19T21:48:54;45.72;;;23.35;;
37131;SDS011;23035;50.032;21.978;2023-03-19T21:54:00;45.53;;;22.13;;
37131;SDS011;23035;50.032;21.978;2023-03-19T21:59:09;38.70;;;20.05;;
37131;SDS011;23035;50.032;21.978;2023-03-19T22:04:16;44.30;;;22.20;;
37131;SDS011;23035;50.032;21.978;2023-03-19T22:09:22;45.83;;;24.70;;
37131;SDS011;23035;50.032;21.978;2023-03-19T22:14:26;37.42;;;19.30;;
37131;SDS011;23035;50.032;21.978;2023-03-19T22:19:31;40.40;;;17.58;;
37131;SDS011;23035;50.032;21.978;2023-03-19T22:24:36;34.97;;;17.25;;
37131;SDS011;23035;50.032;21.978;2023-03-19T22:29:40;35.67;;;18.83;;
37131;SDS011;23035;50.032;21.978;2023-03-19T22:34:45;36.80;;;18.20;;
37131;SDS011;23035;50.032;21.978;2023-03-19T22:39:50;38.08;;;18.50;;
37131;SDS011;23035;50.032;21.978;2023-03-19T22:44:54;32.63;;;15.68;;
37131;SDS011;23035;50.032;21.978;2023-03-19T22:49:58;29.77;;;15.95;;
37131;SDS011;23035;50.032;21.978;2023-03-19T22:55:05;28.85;;;16.40;;
37131;SDS011;23035;50.032;21.978;2023-03-19T23:00:17;33.60;;;16.60;;
37131;SDS011;23035;50.032;21.978;2023-03-19T23:05:31;32.25;;;16.55;;
37131;SDS011;23035;50.032;21.978;2023-03-19T23:10:39;36.10;;;18.98;;
37131;SDS011;23035;50.032;21.978;2023-03-19T23:15:44;35.65;;;19.00;;
37131;SDS011;23035;50.032;21.978;2023-03-19T23:20:52;38.08;;;19.58;;
37131;SDS011;23035;50.032;21.978;2023-03-19T23:25:57;41.72;;;19.25;;
37131;SDS011;23035;50.032;21.978;2023-03-19T23:31:01;48.38;;;21.38;;
37131;SDS011;23035;50.032;21.978;2023-03-19T23:36:06;48.10;;;22.88;;
37131;SDS011;23035;50.032;21.978;2023-03-19T23:41:14;46.72;;;22.98;;
37131;SDS011;23035;50.032;21.978;2023-03-19T23:46:23;51.65;;;24.92;;
37131;SDS011;23035;50.032;21.978;2023-03-19T23:51:27;46.25;;;22.02;;
37131;SDS011;23035;50.032;21.978;2023-03-19T23:56:32;42.88;;;20.77;;
